Time;durP1;ratioP1;P1;durP2;ratioP2;P2;SDS_P1;SDS_P2;PMS_P1;PMS_P2;Temp;Humidity;BMP_temperature;BMP_pressure;BME280_temperature;BME280_humidity;BME280_pressure;Samples;Min_cycle;Max_cycle;Signal;HPM_P1;HPM_P2
2024/01/20 00:04:04;;;;;;;6.97;6.30;;;;;;;5.13;58.78;97583.72;10281353;28;20491;-57
2024/01/20 00:09:03;;;;;;;6.03;5.43;;;;;;;5.02;58.61;97544.97;10264097;28;20486;-57
2024/01/20 00:14:02;;;;;;;5.55;4.95;;;;;;;4.70;58.96;97586.31;10281769;28;20415;-57
2024/01/20 00:19:01;;;;;;;6.82;5.60;;;;;;;4.52;58.18;97511.44;10281321;28;20116;-56
2024/01/20 00:24:00;;;;;;;6.18;5.57;;;;;;;4.51;58.89;97525.13;10280693;28;20113;-57
2024/01/20 00:28:59;;;;;;;5.80;5.30;;;;;;;3.30;58.96;97368.66;10280691;28;20038;-56
2024/01/20 00:33:58;;;;;;;8.65;7.07;;;;;;;4.66;59.97;97587.09;10281060;28;20029;-56
2024/01/20 00:38:57;;;;;;;5.70;5.30;;;;;;;4.06;62.26;97562.78;10280692;28;20221;-56
2024/01/20 00:43:55;;;;;;;6.93;6.32;;;;;;;3.80;63.78;97562.19;10280572;28;20064;-56
2024/01/20 00:48:54;;;;;;;5.95;5.45;;;;;;;3.91;65.75;97600.06;10280535;28;20041;-56
2024/01/20 00:53:53;;;;;;;6.05;5.45;;;;;;;3.77;68.57;97628.84;10262726;28;20042;-56
2024/01/20 00:58:52;;;;;;;5.82;5.32;;;;;;;3.46;71.35;97652.03;10279473;28;20065;-57
2024/01/20 01:03:51;;;;;;;5.13;4.45;;;;;;;3.33;73.35;97667.13;10280125;28;20092;-56
2024/01/20 01:08:50;;;;;;;5.15;4.70;;;;;;;2.96;74.07;97661.00;10280334;28;20069;-56
2024/01/20 01:13:49;;;;;;;5.22;4.82;;;;;;;2.98;75.07;97666.16;10279987;28;20120;-57
2024/01/20 01:18:48;;;;;;;6.65;5.55;;;;;;;2.75;76.67;97627.09;10279908;28;20476;-56
2024/01/20 01:23:47;;;;;;;6.63;5.13;;;;;;;1.48;78.00;97445.13;10279709;28;20113;-56
2024/01/20 01:28:46;;;;;;;8.63;6.93;;;;;;;2.59;78.75;97651.41;10279320;28;20124;-57
2024/01/20 01:33:45;;;;;;;6.00;5.10;;;;;;;2.69;78.81;97665.34;10279506;28;20065;-56
2024/01/20 01:38:44;;;;;;;6.20;5.60;;;;;;;2.64;79.29;97654.97;10277833;28;20128;-56
2024/01/20 01:43:43;;;;;;;5.30;4.80;;;;;;;2.78;79.57;97706.59;10261467;28;20061;-57
2024/01/20 01:48:42;;;;;;;5.55;4.93;;;;;;;2.73;79.00;97680.00;10279174;28;20462;-56
2024/01/20 01:53:41;;;;;;;5.90;5.40;;;;;;;2.69;79.11;97673.03;10279307;28;20030;-56
2024/01/20 01:58:42;;;;;;;7.53;6.05;;;;;;;2.96;79.43;97703.72;10278984;28;20069;-56
2024/01/20 02:03:41;;;;;;;5.65;5.15;;;;;;;2.68;79.46;97656.81;10278707;28;20073;-56
2024/01/20 02:08:40;;;;;;;6.13;5.40;;;;;;;2.77;80.51;97661.31;10278839;28;20065;-56
2024/01/20 02:13:40;;;;;;;4.13;3.72;;;;;;;2.33;79.09;97538.00;10285047;28;20104;-56
2024/01/20 02:18:39;;;;;;;5.10;4.30;;;;;;;2.69;80.62;97663.66;10285889;28;20065;-56
2024/01/20 02:23:41;;;;;;;5.03;4.55;;;;;;;2.52;81.28;97632.44;10285804;28;20091;-56
2024/01/20 02:28:40;;;;;;;5.63;4.70;;;;;;;2.68;82.22;97676.44;10268071;28;20072;-56
2024/01/20 02:33:39;;;;;;;7.18;5.70;;;;;;;2.30;83.10;97601.91;10285737;28;20109;-56
2024/01/20 02:38:38;;;;;;;6.25;4.85;;;;;;;1.35;83.44;97472.03;10285346;28;20128;-56
2024/01/20 02:43:37;;;;;;;5.97;4.43;;;;;;;2.46;82.92;97711.66;10283527;28;20046;-56
2024/01/20 02:48:36;;;;;;;5.53;4.95;;;;;;;2.75;82.34;97724.47;10282622;28;20045;-56
2024/01/20 02:53:35;;;;;;;4.97;4.40;;;;;;;2.34;83.45;97686.53;10284564;28;20133;-56
2024/01/20 02:58:34;;;;;;;4.25;3.85;;;;;;;2.48;82.63;97707.44;10284477;28;20513;-56
2024/01/20 03:03:33;;;;;;;4.97;4.57;;;;;;;2.31;83.76;97726.56;10284239;28;20592;-57
2024/01/20 03:08:32;;;;;;;5.05;4.20;;;;;;;1.83;83.57;97643.16;10283829;28;20036;-56
2024/01/20 03:13:31;;;;;;;5.13;4.57;;;;;;;2.38;83.47;97743.84;10283837;28;20061;-57
2024/01/20 03:18:30;;;;;;;6.75;4.50;;;;;;;2.27;84.55;97760.56;10282337;28;20045;-56
2024/01/20 03:23:28;;;;;;;6.35;4.32;;;;;;;2.19;84.26;97739.00;10282794;28;20451;-56
2024/01/20 03:28:27;;;;;;;5.22;4.72;;;;;;;2.30;84.46;97768.31;10282972;28;20409;-56
2024/01/20 03:33:26;;;;;;;3.78;3.47;;;;;;;2.30;83.65;97770.88;10283111;28;20117;-56
2024/01/20 03:38:25;;;;;;;4.05;3.28;;;;;;;2.38;83.66;97788.25;10282867;28;20068;-56
2024/01/20 03:43:24;;;;;;;3.85;3.55;;;;;;;2.31;83.96;97780.34;10282890;28;20060;-56
2024/01/20 03:48:23;;;;;;;4.10;3.75;;;;;;;2.06;83.57;97746.25;10282321;28;20118;-56
2024/01/20 03:53:22;;;;;;;4.82;4.32;;;;;;;1.92;83.41;97734.69;10281636;28;20080;-56
2024/01/20 03:58:21;;;;;;;6.78;5.63;;;;;;;2.44;82.71;97809.75;10282300;28;20048;-57
2024/01/20 04:03:20;;;;;;;5.65;4.80;;;;;;;1.12;83.47;97632.31;10281776;28;20129;-56
2024/01/20 04:08:19;;;;;;;5.18;4.18;;;;;;;2.14;84.36;97838.69;10282011;28;20069;-57
2024/01/20 04:13:18;;;;;;;4.63;3.83;;;;;;;1.92;83.71;97796.97;10281827;28;20030;-56
2024/01/20 04:18:17;;;;;;;10.60;7.55;;;;;;;1.99;84.24;97823.66;10281551;28;20527;-56
2024/01/20 04:23:16;;;;;;;7.30;6.25;;;;;;;1.75;84.62;97809.22;10281493;28;20050;-56
2024/01/20 04:28:15;;;;;;;18.33;9.55;;;;;;;1.87;83.81;97825.81;10281036;28;20129;-56
2024/01/20 04:33:14;;;;;;;10.88;6.35;;;;;;;0.55;84.26;97609.06;10280032;28;20061;-56
2024/01/20 04:38:13;;;;;;;5.80;4.18;;;;;;;1.77;84.48;97847.66;10280739;28;20116;-56
2024/01/20 04:43:12;;;;;;;6.85;5.05;;;;;;;1.75;85.22;97873.16;10280552;28;20566;-56
2024/01/20 04:48:11;;;;;;;5.97;4.43;;;;;;;1.67;85.51;97871.16;10280557;28;20065;-57
2024/01/20 04:53:10;;;;;;;7.25;5.32;;;;;;;1.26;86.38;97835.59;10280009;28;20065;-57
2024/01/20 04:58:09;;;;;;;7.18;4.68;;;;;;;1.65;86.43;97901.81;10280197;28;20117;-56
2024/01/20 05:03:08;;;;;;;4.43;3.72;;;;;;;1.57;86.40;97898.06;10302854;28;20048;-55
2024/01/20 05:08:07;;;;;;;5.18;4.15;;;;;;;1.19;86.01;97841.28;10324428;28;20034;-55
2024/01/20 05:13:06;;;;;;;3.90;3.50;;;;;;;1.58;86.64;97925.41;10323692;28;20185;-55
2024/01/20 05:18:05;;;;;;;3.65;3.35;;;;;;;1.39;86.25;97882.06;10323898;28;20493;-55
2024/01/20 05:23:04;;;;;;;3.58;3.10;;;;;;;1.50;86.50;97906.34;10323963;28;20057;-55
2024/01/20 05:28:03;;;;;;;5.68;3.83;;;;;;;1.38;86.97;97914.44;10323011;28;20036;-56
2024/01/20 05:33:02;;;;;;;;;;;;;;;1.58;86.54;97932.22;10321001;28;20068;-56
2024/01/20 05:38:01;;;;;;;33.75;19.83;;;;;;;1.37;86.69;97896.50;10320790;28;19909;-56
2024/01/20 05:43:00;;;;;;;47.53;25.85;;;;;;;0.41;86.67;97751.50;10320860;28;20471;-56
2024/01/20 05:47:59;;;;;;;19.95;16.95;;;;;;;1.38;86.89;97921.25;10325999;28;20065;-56
2024/01/20 05:52:58;;;;;;;7.00;5.30;;;;;;;0.94;87.56;97885.50;10329320;28;20034;-56
2024/01/20 05:57:57;;;;;;;6.25;4.93;;;;;;;0.87;87.97;97892.06;10329717;28;20061;-56
2024/01/20 06:02:56;;;;;;;14.75;9.38;;;;;;;0.97;88.74;97948.66;10328677;28;20077;-57
2024/01/20 06:07:55;;;;;;;11.75;7.82;;;;;;;0.39;88.34;97840.78;10328506;28;20106;-57
2024/01/20 06:12:54;;;;;;;9.10;6.40;;;;;;;0.92;88.84;97948.47;10328200;28;20033;-57
2024/01/20 06:17:53;;;;;;;8.30;6.25;;;;;;;1.02;88.72;97970.13;10328269;28;20060;-57
2024/01/20 06:22:52;;;;;;;;;;;;;;;1.20;88.90;98001.53;10329529;28;20468;-57
2024/01/20 06:27:51;;;;;;;8.10;5.75;;;;;;;1.16;89.07;97997.09;10330427;28;20368;-57
2024/01/20 06:32:50;;;;;;;7.65;5.18;;;;;;;1.36;88.52;98032.81;10328457;28;20415;-58
2024/01/20 06:37:48;;;;;;;11.18;8.98;;;;;;;1.02;88.70;97998.25;10328017;28;20064;-56
2024/01/20 06:42:47;;;;;;;12.38;8.60;;;;;;;1.06;89.18;98023.09;10329535;28;20053;-57
2024/01/20 06:47:46;;;;;;;14.65;9.00;;;;;;;0.64;89.40;97995.88;10329318;28;20120;-56
2024/01/20 06:52:45;;;;;;;14.55;8.95;;;;;;;1.07;89.78;98058.94;10328898;28;20112;-57
2024/01/20 06:57:44;;;;;;;10.85;7.00;;;;;;;0.62;89.95;98019.59;10327332;28;20116;-57
2024/01/20 07:02:43;;;;;;;14.00;8.85;;;;;;;0.39;89.89;98004.16;10328503;28;20049;-56
2024/01/20 07:07:42;;;;;;;20.92;12.35;;;;;;;0.38;90.39;97989.66;10328385;28;20467;-56
2024/01/20 07:12:41;;;;;;;27.75;15.90;;;;;;;0.74;90.05;98012.44;10328379;28;20051;-56
2024/01/20 07:17:40;;;;;;;64.97;30.10;;;;;;;1.03;89.79;98062.16;10328160;28;20025;-57
2024/01/20 07:22:41;;;;;;;31.83;16.30;;;;;;;1.11;89.62;98088.06;10327088;28;20463;-57
2024/01/20 07:27:40;;;;;;;37.22;18.95;;;;;;;1.29;89.27;98104.16;10313333;28;20057;-55
2024/01/20 07:32:40;;;;;;;19.60;11.30;;;;;;;1.14;89.63;98111.19;10319248;28;20152;-57
2024/01/20 07:37:40;;;;;;;9.93;6.75;;;;;;;1.29;89.47;98119.50;10308299;28;20080;-57
2024/01/20 07:42:40;;;;;;;16.23;10.75;;;;;;;1.21;88.92;98115.75;10326376;28;20156;-56
2024/01/20 07:47:39;;;;;;;8.82;6.85;;;;;;;1.47;88.59;98115.94;10326500;28;20057;-57
2024/01/20 07:52:38;;;;;;;9.32;6.82;;;;;;;1.25;88.02;98076.72;10326178;28;20036;-56
2024/01/20 07:57:37;;;;;;;15.23;10.43;;;;;;;1.28;88.03;98107.50;10325995;28;20204;-56
2024/01/20 08:02:39;;;;;;;11.45;8.43;;;;;;;1.25;87.81;98107.41;10325186;28;20037;-58
2024/01/20 08:07:38;;;;;;;13.18;8.48;;;;;;;1.32;88.34;98152.84;10324783;28;20130;-55
2024/01/20 08:12:38;;;;;;;16.95;11.88;;;;;;;1.26;88.57;98155.16;10325986;28;20171;-56
2024/01/20 08:17:37;;;;;;;11.52;8.40;;;;;;;0.08;88.17;97986.66;10325358;28;20061;-55
2024/01/20 08:22:36;;;;;;;8.98;7.47;;;;;;;0.66;88.71;98091.28;10323448;28;20112;-56
2024/01/20 08:27:35;;;;;;;6.22;4.88;;;;;;;1.26;88.22;98190.06;10324947;28;20116;-56
2024/01/20 08:32:34;;;;;;;6.88;5.07;;;;;;;1.11;87.76;98168.16;10324660;28;20061;-56
2024/01/20 08:37:33;;;;;;;9.90;7.03;;;;;;;1.25;88.22;98171.31;10324810;28;20124;-57
2024/01/20 08:42:32;;;;;;;21.38;13.70;;;;;;;1.18;88.46;98178.63;10325220;28;20057;-56
2024/01/20 08:47:31;;;;;;;9.55;7.05;;;;;;;1.40;88.16;98241.78;10324642;28;20061;-55
2024/01/20 08:52:30;;;;;;;15.50;11.98;;;;;;;1.45;87.45;98204.50;10324219;28;20112;-55
2024/01/20 08:57:29;;;;;;;17.85;12.15;;;;;;;1.41;88.20;98206.06;10324113;28;20034;-55
2024/01/20 09:02:28;;;;;;;21.60;16.33;;;;;;;1.45;88.18;98236.06;10324317;28;20087;-56
2024/01/20 09:07:28;;;;;;;16.25;12.63;;;;;;;1.21;88.73;98223.09;10324386;28;20061;-55
2024/01/20 09:12:27;;;;;;;24.42;13.52;;;;;;;1.16;88.87;98262.94;10324295;28;20808;-56
2024/01/20 09:17:26;;;;;;;28.25;16.38;;;;;;;1.05;88.99;98219.00;10306167;28;20033;-57
2024/01/20 09:22:25;;;;;;;21.02;13.65;;;;;;;1.10;88.65;98257.53;10329039;28;20501;-56
2024/01/20 09:27:25;;;;;;;;;;;;;;;1.08;89.28;98260.06;10333049;28;20060;-57
2024/01/20 09:32:24;;;;;;;17.17;10.35;;;;;;;-0.17;89.00;98049.31;10332392;28;19956;-57
2024/01/20 09:37:23;;;;;;;22.80;14.02;;;;;;;1.00;88.59;98275.84;10331752;28;20029;-55
2024/01/20 09:42:22;;;;;;;18.23;12.40;;;;;;;0.77;88.03;98231.38;10331836;28;20049;-57
2024/01/20 09:47:21;;;;;;;;;;;;;;;1.29;87.72;98289.91;10330239;28;20071;-56
2024/01/20 09:52:27;;;;;;;22.05;17.13;;;;;;;1.19;86.55;98293.72;10329318;28;20004;-56
2024/01/20 09:57:28;;;;;;;19.50;14.23;;;;;;;0.83;86.85;98226.53;10327860;28;20525;-55
2024/01/20 10:02:29;;;;;;;19.42;13.85;;;;;;;1.27;86.71;98283.84;10311014;28;20069;-55
2024/01/20 10:07:29;;;;;;;16.73;11.98;;;;;;;1.15;84.85;98284.16;10327652;28;20072;-55
2024/01/20 10:12:28;;;;;;;14.73;11.00;;;;;;;1.07;84.80;98275.31;10328219;28;20451;-55
2024/01/20 10:17:27;;;;;;;16.52;11.25;;;;;;;1.19;84.12;98298.84;10330292;28;20514;-56
2024/01/20 10:22:26;;;;;;;16.75;11.55;;;;;;;1.24;83.84;98296.50;10330256;28;20033;-56
2024/01/20 10:27:25;;;;;;;23.25;15.32;;;;;;;0.42;85.32;98142.13;10329932;28;20053;-55
2024/01/20 10:32:24;;;;;;;15.90;11.13;;;;;;;1.01;83.92;98275.03;10329667;28;20426;-55
2024/01/20 10:37:29;;;;;;;18.13;14.50;;;;;;;1.08;84.55;98277.03;10328046;28;20067;-56
2024/01/20 10:42:31;;;;;;;17.52;13.65;;;;;;;1.42;85.18;98302.41;10327844;28;20083;-55
2024/01/20 10:47:38;;;;;;;16.77;12.75;;;;;;;1.18;84.77;98281.78;10328435;28;20064;-55
2024/01/20 10:52:38;;;;;;;24.15;14.52;;;;;;;1.01;84.39;98246.91;10327666;28;20061;-56
2024/01/20 10:57:37;;;;;;;27.88;16.95;;;;;;;0.75;84.47;98223.63;10328843;28;20439;-56
2024/01/20 11:02:36;;;;;;;17.27;12.15;;;;;;;0.12;84.12;98113.53;10328453;28;20495;-55
2024/01/20 11:07:36;;;;;;;22.45;16.77;;;;;;;1.14;84.69;98253.44;10328631;28;20060;-55
2024/01/20 11:12:35;;;;;;;21.65;14.07;;;;;;;0.19;84.55;98102.81;10328126;28;20068;-56
2024/01/20 11:17:34;;;;;;;42.55;32.15;;;;;;;1.46;84.98;98285.53;10328226;28;20036;-55
2024/01/20 11:22:34;;;;;;;16.77;11.32;;;;;;;1.70;83.78;98304.47;10328027;28;20466;-56
2024/01/20 11:27:54;;;;;;;20.58;15.15;;;;;;;1.45;84.27;98261.63;10327697;28;20065;-56
2024/01/20 11:32:57;;;;;;;20.70;14.80;;;;;;;1.43;83.38;98298.19;10326802;28;20500;-56
2024/01/20 11:37:59;;;;;;;23.48;17.40;;;;;;;1.19;84.21;98308.22;10327240;28;20060;-56
2024/01/20 11:43:08;;;;;;;20.17;13.13;;;;;;;1.27;84.72;98322.19;10326519;28;20057;-55
2024/01/20 11:48:07;;;;;;;15.63;12.17;;;;;;;1.36;84.34;98325.16;10327095;28;20068;-55
2024/01/20 11:53:06;;;;;;;;;;;;;;;1.08;84.06;98321.38;10327093;28;20108;-56
2024/01/20 11:58:05;;;;;;;25.58;18.55;;;;;;;0.92;85.13;98307.81;10323851;28;20007;-55
2024/01/20 12:03:04;;;;;;;22.90;15.48;;;;;;;1.03;85.19;98333.06;10325469;28;20045;-55
2024/01/20 12:08:04;;;;;;;23.02;15.23;;;;;;;0.62;85.14;98296.28;10326348;28;20060;-56
2024/01/20 12:13:03;;;;;;;26.10;18.27;;;;;;;0.94;85.96;98337.75;10325718;28;20060;-56
2024/01/20 12:18:02;;;;;;;19.00;12.45;;;;;;;0.59;85.82;98290.13;10325560;28;21041;-56
2024/01/20 12:23:02;;;;;;;23.60;16.77;;;;;;;-0.12;85.69;98141.34;10325309;28;20060;-57
2024/01/20 12:28:01;;;;;;;46.33;24.65;;;;;;;1.02;85.95;98346.66;10325354;28;20061;-56
2024/01/20 12:33:00;;;;;;;;;;;;;;;0.99;86.04;98360.97;10325339;28;20068;-58
2024/01/20 12:37:59;;;;;;;24.20;17.17;;;;;;;1.13;85.45;98357.38;10325092;28;19913;-56
2024/01/20 12:42:58;;;;;;;20.50;14.45;;;;;;;1.06;85.39;98317.88;10324967;28;20064;-56
2024/01/20 12:47:57;;;;;;;16.02;11.18;;;;;;;1.24;84.99;98368.94;10324828;28;20029;-56
2024/01/20 12:52:56;;;;;;;16.75;11.70;;;;;;;0.86;85.51;98299.06;10324812;28;20048;-56
2024/01/20 12:57:55;;;;;;;13.90;8.82;;;;;;;1.31;84.85;98370.97;10323645;28;20088;-57
2024/01/20 13:02:55;;;;;;;19.52;12.70;;;;;;;1.02;84.67;98335.56;10323572;28;20079;-57
2024/01/20 13:07:53;;;;;;;20.95;13.48;;;;;;;1.52;84.71;98388.97;10324564;28;20589;-57
2024/01/20 13:12:52;;;;;;;18.55;10.77;;;;;;;1.62;84.46;98405.63;10324175;28;20509;-57
2024/01/20 13:17:52;;;;;;;23.40;14.60;;;;;;;1.49;83.67;98380.28;10323783;28;20038;-58
2024/01/20 13:22:51;;;;;;;;;;;;;;;1.55;83.92;98416.34;10324406;28;20057;-56
2024/01/20 13:27:49;;;;;;;21.48;14.68;;;;;;;1.37;84.21;98385.72;10324081;28;19931;-56
2024/01/20 13:32:48;;;;;;;16.92;11.52;;;;;;;1.12;83.69;98335.16;10323792;28;20029;-56
2024/01/20 13:37:47;;;;;;;31.05;22.65;;;;;;;1.37;84.34;98380.63;10323490;28;20069;-56
2024/01/20 13:42:46;;;;;;;17.00;12.55;;;;;;;1.61;84.20;98413.22;10323493;28;20549;-56
2024/01/20 13:47:45;;;;;;;17.13;13.73;;;;;;;1.59;84.79;98420.81;10321697;28;20384;-56
2024/01/20 13:52:44;;;;;;;15.55;9.30;;;;;;;1.25;83.22;98378.38;10323225;28;20034;-56
2024/01/20 13:57:43;;;;;;;19.27;14.30;;;;;;;1.38;84.05;98427.53;10323361;28;20562;-56
2024/01/20 14:02:46;;;;;;;21.38;16.42;;;;;;;1.13;83.99;98380.38;10323180;28;20466;-57
2024/01/20 14:07:45;;;;;;;32.88;20.33;;;;;;;1.30;84.86;98393.94;10326751;28;20471;-57
2024/01/20 14:12:44;;;;;;;40.60;26.38;;;;;;;1.64;84.13;98452.59;10330554;28;20396;-57
2024/01/20 14:17:43;;;;;;;42.00;24.95;;;;;;;1.64;84.16;98480.72;10330416;28;20116;-57
2024/01/20 14:22:42;;;;;;;47.15;28.42;;;;;;;1.57;84.60;98491.50;10330167;28;20025;-57
2024/01/20 14:27:41;;;;;;;;;;;;;;;1.65;84.43;98495.28;10330593;28;20061;-57
2024/01/20 14:32:40;;;;;;;29.70;20.77;;;;;;;1.52;84.88;98500.63;10329636;28;19920;-57
2024/01/20 14:37:39;;;;;;;31.02;22.50;;;;;;;1.04;84.70;98418.28;10329255;28;20017;-57
2024/01/20 14:42:38;;;;;;;19.77;13.30;;;;;;;1.48;85.46;98485.94;10329330;28;20045;-57
2024/01/20 14:47:37;;;;;;;18.70;12.65;;;;;;;1.02;85.09;98432.69;10326260;28;20079;-57
2024/01/20 14:52:36;;;;;;;23.83;16.20;;;;;;;1.32;84.48;98523.59;10327617;28;20033;-57
2024/01/20 14:57:35;;;;;;;27.95;20.00;;;;;;;1.13;85.30;98494.50;10326692;28;20025;-57
2024/01/20 15:02:34;;;;;;;27.35;19.23;;;;;;;1.20;85.57;98517.91;10327854;28;20588;-57
2024/01/20 15:07:33;;;;;;;33.08;23.70;;;;;;;0.95;85.87;98487.72;10328405;28;20061;-58
2024/01/20 15:12:32;;;;;;;24.20;16.30;;;;;;;0.93;85.34;98506.34;10328179;28;20025;-57
2024/01/20 15:17:31;;;;;;;23.45;17.05;;;;;;;0.93;85.43;98539.56;10327486;28;20730;-56
2024/01/20 15:22:30;;;;;;;42.83;31.05;;;;;;;0.78;86.06;98540.56;10327702;28;20109;-56
2024/01/20 15:27:29;;;;;;;34.83;24.55;;;;;;;0.61;86.19;98546.47;10327420;28;20034;-56
2024/01/20 15:32:28;;;;;;;25.98;17.77;;;;;;;-0.40;86.34;98399.25;10326228;28;20117;-57
2024/01/20 15:37:27;;;;;;;30.48;20.42;;;;;;;0.36;86.60;98555.44;10325449;28;20068;-57
2024/01/20 15:42:26;;;;;;;26.73;19.92;;;;;;;0.47;87.23;98577.31;10326716;28;20105;-57
2024/01/20 15:47:25;;;;;;;22.08;15.63;;;;;;;0.57;86.99;98600.75;10326759;28;20568;-57
2024/01/20 15:52:25;;;;;;;29.95;17.42;;;;;;;-0.21;87.16;98526.06;10326744;28;20057;-56
2024/01/20 15:57:24;;;;;;;18.40;13.50;;;;;;;0.12;88.09;98615.41;10308433;28;20852;-57
2024/01/20 16:02:24;;;;;;;13.73;9.75;;;;;;;-0.62;89.28;98558.69;10325972;28;20083;-56
2024/01/20 16:07:23;;;;;;;27.13;14.68;;;;;;;-0.43;90.46;98648.97;10325920;28;20064;-56
2024/01/20 16:12:22;;;;;;;58.58;27.88;;;;;;;-0.81;90.60;98579.72;10325651;28;20398;-57
2024/01/20 16:17:21;;;;;;;24.80;17.23;;;;;;;-0.61;91.64;98618.19;10325824;28;20072;-57
2024/01/20 16:22:20;;;;;;;13.75;10.13;;;;;;;-0.58;91.76;98651.50;10325306;28;20466;-57
2024/01/20 16:27:19;;;;;;;32.10;16.75;;;;;;;-0.81;92.20;98643.44;10323505;28;20041;-57
2024/01/20 16:32:19;;;;;;;89.80;51.75;;;;;;;-0.68;92.79;98639.03;10325384;28;20125;-57
2024/01/20 16:37:18;;;;;;;20.95;13.70;;;;;;;-0.68;92.57;98690.88;10325420;28;20068;-57
2024/01/20 16:42:17;;;;;;;32.88;19.50;;;;;;;-0.60;92.46;98687.13;10324646;28;20053;-56
2024/01/20 16:47:16;;;;;;;25.73;17.55;;;;;;;-0.55;92.33;98701.81;10323611;28;20061;-57
2024/01/20 16:52:15;;;;;;;53.30;31.73;;;;;;;-0.58;92.24;98702.50;10324198;28;20084;-57
2024/01/20 16:57:14;;;;;;;28.10;16.65;;;;;;;-0.82;92.57;98668.81;10324357;28;20033;-57
2024/01/20 17:02:13;;;;;;;;;;;;;;;-0.56;91.82;98730.63;10324936;28;20471;-56
2024/01/20 17:07:12;;;;;;;22.90;14.43;;;;;;;-0.68;92.82;98723.16;10324103;28;20306;-56
2024/01/20 17:12:11;;;;;;;20.80;13.55;;;;;;;-0.91;92.52;98725.19;10323065;28;20072;-57
2024/01/20 17:17:10;;;;;;;22.60;14.55;;;;;;;-1.04;93.34;98722.75;10324636;28;20037;-56
2024/01/20 17:22:09;;;;;;;24.85;15.98;;;;;;;-0.90;93.77;98762.66;10321039;28;20546;-58
2024/01/20 17:27:08;;;;;;;13.68;10.02;;;;;;;-0.96;93.60;98757.19;10322825;28;20029;-57
2024/01/20 17:32:08;;;;;;;19.48;12.07;;;;;;;-1.04;92.77;98722.75;10324089;28;20756;-57
2024/01/20 17:37:07;;;;;;;28.08;18.42;;;;;;;-0.70;93.41;98773.16;10323493;28;20065;-56
2024/01/20 17:42:06;;;;;;;25.20;17.02;;;;;;;-1.10;93.31;98702.84;10325526;28;20080;-57
2024/01/20 17:47:06;;;;;;;41.00;21.50;;;;;;;-0.99;92.65;98767.19;10313586;28;20053;-57
2024/01/20 17:52:06;;;;;;;28.05;17.67;;;;;;;-0.86;92.32;98756.97;10331878;28;20132;-55
2024/01/20 17:57:05;;;;;;;21.00;13.27;;;;;;;-1.18;92.44;98687.91;10330949;28;20072;-57
2024/01/20 18:02:04;;;;;;;17.30;12.80;;;;;;;-1.31;92.29;98691.38;10330414;28;20075;-56
2024/01/20 18:07:03;;;;;;;16.35;12.20;;;;;;;-1.20;92.44;98748.06;10330167;28;20068;-55
2024/01/20 18:12:02;;;;;;;18.42;13.02;;;;;;;-1.44;93.14;98697.41;10329731;28;20072;-56
2024/01/20 18:17:01;;;;;;;;;;;;;;;-0.86;92.77;98809.56;10312585;28;20122;-55
2024/01/20 18:22:01;;;;;;;8.88;6.97;;;;;;;-0.93;92.60;98812.53;10328724;28;19909;-55
2024/01/20 18:27:00;;;;;;;9.13;6.50;;;;;;;-1.65;93.88;98766.56;10329379;28;20053;-55
2024/01/20 18:31:59;;;;;;;10.93;7.65;;;;;;;-1.47;93.79;98811.75;10329669;28;20034;-55
2024/01/20 18:36:58;;;;;;;12.95;9.68;;;;;;;-1.64;94.04;98773.38;10329155;28;20491;-56
2024/01/20 18:41:57;;;;;;;15.43;9.60;;;;;;;-1.81;94.54;98819.78;10329737;28;20034;-56
2024/01/20 18:46:56;;;;;;;10.80;7.00;;;;;;;-1.71;94.95;98851.78;10329366;28;20025;-56
2024/01/20 18:51:59;;;;;;;23.45;13.27;;;;;;;-2.01;95.88;98809.97;10328739;28;20105;-57
2024/01/20 18:56:58;;;;;;;15.05;8.43;;;;;;;-1.75;95.27;98843.09;10328459;28;20812;-57
2024/01/20 19:01:58;;;;;;;13.02;7.07;;;;;;;-2.18;94.62;98781.78;10310676;28;20065;-57
2024/01/20 19:06:57;;;;;;;13.30;7.65;;;;;;;-1.75;94.82;98857.47;10328575;28;20487;-57
2024/01/20 19:11:56;;;;;;;30.35;15.35;;;;;;;-1.54;94.61;98840.16;10326799;28;20116;-57
2024/01/20 19:16:55;;;;;;;;;;;;;;;-1.48;93.76;98864.34;10327278;28;20501;-56
2024/01/20 19:21:54;;;;;;;12.63;8.55;;;;;;;-1.64;94.51;98836.13;10328006;28;20378;-56
2024/01/20 19:26:53;;;;;;;17.35;10.73;;;;;;;-1.74;93.63;98823.63;10327848;28;20482;-56
2024/01/20 19:31:52;;;;;;;13.30;8.50;;;;;;;-1.40;93.95;98874.13;10327671;28;20044;-57
2024/01/20 19:36:51;;;;;;;34.13;20.38;;;;;;;-1.33;93.69;98859.34;10327035;28;20047;-57
2024/01/20 19:41:51;;;;;;;73.70;39.70;;;;;;;-1.61;92.96;98784.56;10327212;28;20037;-57
2024/01/20 19:46:50;;;;;;;53.28;31.88;;;;;;;-0.93;92.88;98872.03;10324987;28;20060;-57
2024/01/20 19:51:49;;;;;;;26.67;14.40;;;;;;;-0.71;92.34;98871.69;10325209;28;20112;-57
2024/01/20 19:56:47;;;;;;;40.25;23.80;;;;;;;-0.90;92.56;98834.00;10324333;28;20049;-57
2024/01/20 20:01:48;;;;;;;26.92;15.05;;;;;;;-0.47;92.36;98887.56;10325673;28;20029;-57
2024/01/20 20:06:49;;;;;;;23.77;14.82;;;;;;;-0.38;91.97;98883.03;10307320;28;20076;-57
2024/01/20 20:11:49;;;;;;;27.52;19.02;;;;;;;-0.52;91.64;98871.13;10307716;28;20064;-57
2024/01/20 20:16:48;;;;;;;20.30;13.55;;;;;;;-0.67;91.60;98866.00;10325650;28;20076;-57
2024/01/20 20:21:46;;;;;;;20.90;13.85;;;;;;;-0.67;91.84;98848.16;10325918;28;20033;-58
2024/01/20 20:26:45;;;;;;;13.57;8.98;;;;;;;-0.47;90.68;98881.59;10325516;28;20112;-56
2024/01/20 20:31:44;;;;;;;15.23;9.98;;;;;;;-0.76;90.06;98872.19;10325451;28;20030;-57
2024/01/20 20:36:43;;;;;;;14.98;9.50;;;;;;;-0.97;90.96;98895.56;10325179;28;20048;-57
2024/01/20 20:41:42;;;;;;;10.95;7.07;;;;;;;-1.60;91.75;98860.13;10324812;28;20029;-56
2024/01/20 20:46:41;;;;;;;9.63;6.15;;;;;;;-1.57;92.14;98901.03;10325004;28;20451;-57
2024/01/20 20:51:41;;;;;;;17.73;11.07;;;;;;;-2.32;91.78;98760.53;10324804;28;20533;-57
2024/01/20 20:56:40;;;;;;;17.33;12.15;;;;;;;-1.24;92.09;98902.31;10324560;28;20061;-56
2024/01/20 21:01:40;;;;;;;20.58;13.65;;;;;;;-1.58;91.53;98828.03;10322707;28;20383;-56
2024/01/20 21:06:39;;;;;;;40.05;23.33;;;;;;;-1.23;91.58;98858.25;10322995;28;20061;-56
2024/01/20 21:11:38;;;;;;;14.77;10.45;;;;;;;-0.87;90.26;98900.44;10324765;28;20475;-56
2024/01/20 21:16:42;;;;;;;16.10;10.73;;;;;;;-1.22;90.86;98865.97;10326452;28;20048;-57
2024/01/20 21:21:41;;;;;;;19.15;12.15;;;;;;;-1.19;90.61;98870.38;10332711;28;20092;-56
2024/01/20 21:26:40;;;;;;;19.75;14.35;;;;;;;-1.05;91.35;98869.63;10332232;28;20036;-56
2024/01/20 21:31:41;;;;;;;22.95;14.63;;;;;;;-0.77;90.29;98903.56;10330415;28;20065;-56
2024/01/20 21:36:40;;;;;;;63.80;37.75;;;;;;;-0.91;90.35;98874.66;10331936;28;20076;-56
2024/01/20 21:41:39;;;;;;;15.98;10.75;;;;;;;-0.77;89.18;98916.28;10331932;28;20117;-56
2024/01/20 21:46:38;;;;;;;15.65;10.30;;;;;;;-1.44;88.88;98851.03;10332009;28;20116;-56
2024/01/20 21:51:38;;;;;;;9.05;6.63;;;;;;;-1.56;88.20;98841.72;10331745;28;20061;-56
2024/01/20 21:56:38;;;;;;;;;;;;;;;-1.00;89.08;98951.44;10331543;28;20065;-57
2024/01/20 22:01:38;;;;;;;8.88;5.72;;;;;;;-1.46;89.53;98884.81;10331054;28;19956;-58
2024/01/20 22:06:38;;;;;;;18.02;12.05;;;;;;;-1.03;89.81;98931.69;10330944;28;20061;-56
2024/01/20 22:11:37;;;;;;;17.58;11.20;;;;;;;-1.35;89.08;98876.19;10330693;28;20061;-56
2024/01/20 22:16:35;;;;;;;26.77;15.55;;;;;;;-0.82;89.43;98966.97;10330594;28;20034;-56
2024/01/20 22:21:38;;;;;;;29.63;15.63;;;;;;;-0.68;89.66;98962.75;10330708;28;20478;-56
2024/01/20 22:26:37;;;;;;;64.88;40.67;;;;;;;-1.36;89.04;98830.25;10329837;28;20056;-57
2024/01/20 22:31:36;;;;;;;46.58;26.65;;;;;;;-0.88;89.32;98921.63;10329739;28;20068;-56
2024/01/20 22:36:35;;;;;;;45.67;24.13;;;;;;;-0.95;89.99;98876.16;10330079;28;20072;-56
2024/01/20 22:41:34;;;;;;;18.45;11.05;;;;;;;-0.55;87.54;98949.09;10329785;28;20112;-56
2024/01/20 22:46:33;;;;;;;16.23;9.52;;;;;;;-0.89;87.76;98934.25;10329539;28;20099;-56
2024/01/20 22:51:32;;;;;;;18.55;11.00;;;;;;;-1.07;87.53;98932.31;10327513;28;20025;-56
2024/01/20 22:56:31;;;;;;;;;;;;;;;-1.06;88.87;98945.94;10328183;28;20069;-56
2024/01/20 23:01:30;;;;;;;14.40;8.95;;;;;;;-1.29;88.69;98886.75;10328930;28;19951;-56
2024/01/20 23:06:29;;;;;;;9.75;6.93;;;;;;;-1.16;89.30;98920.66;10328886;28;20049;-56
2024/01/20 23:11:28;;;;;;;12.90;8.85;;;;;;;-1.30;88.86;98876.50;10326681;28;20084;-56